createdAt,value
2018-04-12T00:01:20.232Z,44.77
2018-04-12T00:03:46.300Z,46.70
2018-04-12T00:06:12.485Z,44.37
2018-04-12T00:08:38.589Z,43.85
2018-04-12T00:11:05.421Z,45.80
2018-04-12T00:13:32.256Z,44.85
2018-04-12T00:15:58.322Z,43.55
2018-04-12T00:18:24.393Z,44.20
2018-04-12T00:20:50.458Z,43.40
2018-04-12T00:23:16.535Z,43.97
2018-04-12T00:25:42.625Z,42.22
2018-04-12T00:28:08.716Z,43.40
2018-04-12T00:30:35.573Z,46.03
2018-04-12T00:33:01.637Z,44.45
2018-04-12T00:35:28.473Z,44.25
2018-04-12T00:37:54.564Z,44.42
2018-04-12T00:40:20.640Z,44.92
2018-04-12T00:42:47.461Z,44.70
2018-04-12T00:45:13.536Z,41.63
2018-04-12T00:47:39.717Z,43.70
2018-04-12T00:50:05.876Z,41.55
2018-04-12T00:52:31.960Z,45.42
2018-04-12T00:54:58.049Z,44.28
2018-04-12T00:57:24.136Z,43.30
2018-04-12T00:59:50.212Z,43.08
2018-04-12T01:02:16.316Z,43.67
2018-04-12T01:04:42.440Z,44.63
2018-04-12T01:07:08.631Z,45.47
2018-04-12T01:09:34.753Z,45.35
2018-04-12T01:12:00.885Z,45.03
2018-04-12T01:14:27.017Z,46.20
2018-04-12T01:16:53.121Z,45.40
2018-04-12T01:19:19.205Z,46.85
2018-04-12T01:21:45.576Z,45.12
2018-04-12T01:24:12.428Z,42.97
2018-04-12T01:26:39.269Z,45.38
2018-04-12T01:29:05.369Z,43.85
2018-04-12T01:31:31.473Z,42.50
2018-04-12T01:33:58.320Z,42.03
2018-04-12T01:36:24.397Z,39.28
2018-04-12T01:38:50.461Z,41.47
2018-04-12T01:41:16.532Z,39.75
2018-04-12T01:43:42.641Z,39.67
2018-04-12T01:46:08.733Z,37.38
2018-04-12T01:48:34.874Z,37.50
2018-04-12T01:51:01.773Z,37.55
2018-04-12T01:53:27.913Z,36.28
2018-04-12T01:55:53.972Z,38.63
2018-04-12T01:58:20.778Z,37.17
2018-04-12T02:00:46.840Z,38.47
2018-04-12T02:03:12.940Z,34.28
2018-04-12T02:05:39.076Z,34.05
2018-04-12T02:08:05.195Z,37.22
2018-04-12T02:10:31.282Z,34.58
2018-04-12T02:12:57.374Z,35.05
2018-04-12T02:15:23.452Z,34.97
2018-04-12T02:17:49.525Z,33.60
2018-04-12T02:20:16.329Z,34.83
2018-04-12T02:22:42.462Z,32.83
2018-04-12T02:25:08.555Z,33.25
2018-04-12T02:27:34.655Z,33.22
2018-04-12T02:30:00.756Z,31.08
2018-04-12T02:32:26.844Z,32.80
2018-04-12T02:34:53.654Z,33.70
2018-04-12T02:37:19.733Z,33.45
2018-04-12T02:39:45.792Z,34.20
2018-04-12T02:42:11.885Z,34.40
2018-04-12T02:44:37.985Z,31.98
2018-04-12T02:47:04.053Z,32.72
2018-04-12T02:49:30.105Z,32.25
2018-04-12T02:51:56.177Z,33.80
2018-04-12T02:54:22.249Z,33.03
2018-04-12T02:56:48.305Z,33.25
2018-04-12T02:59:14.398Z,32.10
2018-04-12T03:01:40.558Z,31.85
2018-04-12T03:04:06.701Z,32.22
2018-04-12T03:06:32.765Z,33.60
2018-04-12T03:08:58.825Z,32.05
2018-04-12T03:11:25.623Z,32.80
2018-04-12T03:13:51.712Z,34.05
2018-04-12T03:16:18.533Z,33.95
2018-04-12T03:18:44.590Z,33.50
2018-04-12T03:21:11.492Z,32.20
2018-04-12T03:23:37.570Z,33.42
2018-04-12T03:26:03.633Z,32.30
2018-04-12T03:28:30.487Z,33.95
2018-04-12T03:30:57.308Z,31.48
2018-04-12T03:33:23.404Z,35.35
2018-04-12T03:35:49.477Z,34.60
2018-04-12T03:38:15.560Z,35.50
2018-04-12T03:40:42.380Z,34.72
2018-04-12T03:43:08.557Z,34.78
2018-04-12T03:45:35.310Z,34.53
2018-04-12T03:48:01.409Z,36.15
2018-04-12T03:50:27.561Z,35.42
2018-04-12T03:52:53.592Z,34.97
2018-04-12T03:55:20.416Z,36.03
2018-04-12T03:57:46.508Z,33.80
2018-04-12T04:00:12.598Z,35.33
2018-04-12T04:02:38.741Z,35.90
2018-04-12T04:05:05.599Z,33.28
2018-04-12T04:07:31.676Z,33.92
2018-04-12T04:09:57.768Z,34.58
2018-04-12T04:12:23.857Z,34.50
2018-04-12T04:18:01.297Z,33.90
2018-04-12T04:20:39.801Z,33.35
2018-04-12T04:23:06.238Z,35.10
2018-04-12T04:25:33.290Z,34.20
2018-04-12T04:27:59.556Z,35.53
2018-04-12T04:30:26.652Z,33.97
2018-04-12T04:32:52.982Z,32.38
2018-04-12T04:35:19.290Z,34.10
2018-04-12T04:37:45.526Z,33.30
2018-04-12T04:40:11.841Z,34.50
2018-04-12T04:42:38.245Z,35.45
2018-04-12T04:45:05.193Z,35.33
2018-04-12T04:47:31.708Z,35.75
2018-04-12T04:49:58.715Z,34.13
2018-04-12T04:52:25.013Z,35.38
2018-04-12T04:54:51.305Z,33.80
2018-04-12T04:57:17.544Z,34.95
2018-04-12T04:59:43.824Z,36.50
2018-04-12T05:02:11.014Z,35.30
2018-04-12T05:04:38.145Z,35.20
2018-04-12T05:07:04.467Z,34.78
2018-04-12T05:09:38.003Z,33.90
2018-04-12T05:12:05.227Z,37.70
2018-04-12T05:14:31.445Z,36.53
2018-04-12T05:17:04.048Z,36.00
2018-04-12T05:19:30.155Z,33.05
2018-04-12T05:21:56.388Z,35.17
2018-04-12T05:24:22.466Z,35.83
2018-04-12T05:26:48.651Z,35.67
2018-04-12T05:29:14.758Z,34.83
2018-04-12T05:31:40.941Z,36.03
2018-04-12T05:34:07.235Z,33.85
2018-04-12T05:36:34.085Z,35.10
2018-04-12T05:39:02.252Z,34.92
2018-04-12T05:41:35.709Z,37.42
2018-04-12T05:44:01.954Z,33.55
2018-04-12T05:46:28.113Z,35.70
2018-04-12T05:48:56.195Z,41.08
2018-04-12T05:51:37.672Z,36.45
2018-04-12T05:54:03.733Z,36.50
2018-04-12T05:56:36.025Z,37.13
2018-04-12T05:59:04.204Z,38.88
2018-04-12T06:01:32.100Z,35.95
2018-04-12T06:03:58.209Z,38.25
2018-04-12T06:06:26.360Z,37.88
2018-04-12T06:08:52.589Z,37.50
2018-04-12T06:11:18.665Z,39.25
2018-04-12T06:13:45.557Z,36.33
2018-04-12T06:16:11.701Z,40.85
2018-04-12T06:18:38.632Z,37.72
2018-04-12T06:21:04.719Z,37.97
2018-04-12T06:23:30.829Z,40.33
2018-04-12T06:25:56.941Z,40.03
2018-04-12T06:28:35.144Z,39.65
2018-04-12T06:31:01.267Z,38.30
2018-04-12T06:33:27.333Z,40.03
2018-04-12T06:35:54.185Z,40.20
2018-04-12T06:38:21.025Z,41.20
2018-04-12T06:40:47.867Z,42.92
2018-04-12T06:43:13.941Z,42.33
2018-04-12T06:45:40.132Z,41.97
2018-04-12T06:48:07.079Z,42.10
2018-04-12T06:50:33.240Z,39.75
2018-04-12T06:52:59.410Z,41.35
2018-04-12T06:55:26.230Z,42.85
2018-04-12T06:57:52.292Z,42.42
2018-04-12T07:00:28.015Z,41.83
2018-04-12T07:02:56.132Z,41.78
2018-04-12T07:05:23.181Z,42.17
2018-04-12T07:07:50.192Z,43.53
2018-04-12T07:10:16.456Z,42.05
2018-04-12T07:12:42.724Z,42.97
2018-04-12T07:15:09.071Z,42.15
2018-04-12T07:17:36.221Z,39.40
2018-04-12T07:20:02.501Z,42.88
2018-04-12T07:22:28.778Z,41.47
2018-04-12T07:24:56.100Z,42.00
2018-04-12T07:27:22.357Z,42.25
2018-04-12T07:29:49.357Z,41.83
2018-04-12T07:32:15.604Z,41.40
2018-04-12T07:34:42.679Z,42.47
2018-04-12T07:37:09.119Z,41.83
2018-04-12T07:39:36.322Z,43.08
2018-04-12T07:42:02.663Z,41.22
2018-04-12T07:44:28.965Z,44.45
2018-04-12T07:46:55.255Z,42.47
2018-04-12T07:49:21.601Z,42.83
2018-04-12T07:51:47.920Z,41.03
2018-04-12T07:54:14.256Z,42.95
2018-04-12T07:56:40.646Z,43.20
2018-04-12T07:59:07.227Z,41.60
2018-04-12T08:01:33.590Z,41.35
2018-04-12T08:04:04.004Z,42.45
2018-04-12T08:06:31.357Z,43.80
2018-04-12T08:08:58.725Z,42.92
2018-04-12T08:11:25.059Z,41.90
2018-04-12T08:13:51.337Z,39.92
2018-04-12T08:16:17.762Z,41.70
2018-04-12T08:18:47.875Z,40.05
2018-04-12T08:21:16.574Z,40.95
2018-04-12T08:23:42.893Z,38.80
2018-04-12T08:26:10.009Z,39.60
2018-04-12T08:28:36.396Z,39.65
2018-04-12T08:31:02.704Z,39.30
2018-04-12T08:33:32.557Z,37.30
2018-04-12T08:35:59.610Z,40.20
2018-04-12T08:38:26.692Z,39.00
2018-04-12T08:40:53.680Z,40.28
2018-04-12T08:43:19.986Z,38.33
2018-04-12T08:45:47.000Z,36.58
2018-04-12T08:48:17.255Z,37.27
2018-04-12T08:50:43.562Z,35.60
2018-04-12T08:53:09.950Z,37.10
2018-04-12T08:55:37.080Z,37.15
2018-04-12T08:58:03.378Z,38.50
2018-04-12T09:00:30.394Z,35.33
2018-04-12T09:02:56.773Z,36.40
2018-04-12T09:05:23.796Z,36.87
2018-04-12T09:07:50.061Z,36.20
2018-04-12T09:10:16.313Z,36.13
2018-04-12T09:12:42.654Z,33.60
2018-04-12T09:15:08.968Z,34.93
2018-04-12T09:17:35.381Z,34.73
2018-04-12T09:20:02.461Z,33.63
2018-04-12T09:22:28.862Z,35.90
2018-04-12T09:24:55.413Z,34.60
2018-04-12T09:27:22.477Z,34.63
2018-04-12T09:29:49.484Z,35.20
2018-04-12T09:32:15.741Z,35.87
2018-04-12T09:34:42.032Z,34.10
2018-04-12T09:37:08.445Z,34.80
2018-04-12T09:39:34.791Z,32.47
2018-04-12T09:42:01.113Z,31.03
2018-04-12T09:44:27.405Z,33.70
2018-04-12T09:46:53.734Z,32.77
2018-04-12T09:49:20.005Z,30.53
2018-04-12T09:51:46.276Z,31.30
2018-04-12T09:54:12.530Z,31.13
2018-04-12T09:56:39.618Z,30.57
2018-04-12T09:59:05.990Z,29.87
2018-04-12T10:01:38.471Z,28.57
2018-04-12T10:04:04.811Z,32.30
2018-04-12T10:06:38.177Z,31.70
2018-04-12T10:09:10.831Z,29.97
2018-04-12T10:11:37.198Z,33.47
2018-04-12T10:14:03.636Z,33.47
2018-04-12T10:16:30.685Z,31.87
2018-04-12T10:18:56.977Z,45.30
2018-04-12T10:21:23.283Z,36.80
2018-04-12T10:23:49.571Z,32.10
2018-04-12T10:26:15.867Z,30.90
2018-04-12T10:28:43.239Z,38.90
2018-04-12T10:31:12.048Z,30.53
2018-04-12T10:33:38.340Z,30.57
2018-04-12T10:36:04.628Z,30.50
2018-04-12T10:38:31.062Z,28.10
2018-04-12T10:40:57.423Z,29.27
2018-04-12T10:43:23.738Z,28.70
2018-04-12T10:45:50.056Z,30.60
2018-04-12T10:48:16.436Z,29.13
2018-04-12T10:50:42.736Z,29.20
2018-04-12T10:53:09.095Z,29.37
2018-04-12T10:55:35.385Z,29.00
2018-04-12T10:58:01.723Z,29.87
2018-04-12T11:00:28.981Z,29.70
2018-04-12T11:02:56.837Z,30.17
2018-04-12T11:05:23.929Z,29.70
2018-04-12T11:07:50.944Z,29.47
2018-04-12T11:10:17.227Z,28.70
2018-04-12T11:12:44.233Z,29.00
2018-04-12T11:15:10.518Z,30.40
2018-04-12T11:17:36.806Z,30.27
2018-04-12T11:20:03.078Z,30.70
2018-04-12T11:22:29.425Z,30.00
2018-04-12T11:24:55.577Z,29.30
2018-04-12T11:27:21.766Z,27.50
2018-04-12T11:29:48.000Z,30.90
2018-04-12T11:32:14.198Z,29.97
2018-04-12T11:34:41.020Z,29.50
2018-04-12T11:37:07.089Z,28.00
2018-04-12T11:39:33.914Z,29.40
2018-04-12T11:42:00.070Z,28.27
2018-04-12T11:44:27.057Z,28.03
2018-04-12T11:46:53.906Z,26.77
2018-04-12T11:49:23.883Z,28.17
2018-04-12T11:51:51.019Z,28.60
2018-04-12T11:54:17.337Z,27.37
2018-04-12T11:56:44.345Z,28.10
2018-04-12T11:59:10.420Z,27.37
2018-04-12T12:01:36.492Z,27.53
2018-04-12T12:04:02.545Z,27.37
2018-04-12T12:06:33.806Z,27.00
2018-04-12T12:09:00.025Z,25.97
2018-04-12T12:11:26.195Z,28.50
2018-04-12T12:13:52.417Z,28.23
2018-04-12T12:16:19.325Z,27.30
2018-04-12T12:18:45.540Z,26.67
2018-04-12T12:21:11.642Z,26.30
2018-04-12T12:23:39.860Z,27.17
2018-04-12T12:26:06.683Z,25.87
2018-04-12T12:28:33.507Z,25.87
2018-04-12T12:30:59.805Z,27.13
2018-04-12T12:33:26.029Z,27.50
2018-04-12T12:35:52.173Z,26.47
2018-04-12T12:38:18.292Z,25.70
2018-04-12T12:40:45.230Z,26.40
2018-04-12T12:43:14.554Z,26.10
2018-04-12T12:45:40.958Z,27.60
2018-04-12T12:48:07.263Z,24.83
2018-04-12T12:50:34.305Z,24.50
2018-04-12T12:53:00.733Z,26.20
2018-04-12T12:55:27.105Z,25.10
2018-04-12T12:57:53.428Z,24.53
2018-04-12T13:00:24.093Z,25.10
2018-04-12T13:02:50.386Z,24.23
2018-04-12T13:05:16.709Z,24.80
2018-04-12T13:07:43.021Z,24.23
2018-04-12T13:10:09.312Z,24.60
2018-04-12T13:12:35.620Z,24.60
2018-04-12T13:15:01.921Z,25.33
2018-04-12T13:17:30.697Z,24.60
2018-04-12T13:19:57.068Z,25.50
2018-04-12T13:22:24.125Z,25.60
2018-04-12T13:24:50.437Z,25.13
2018-04-12T13:27:16.784Z,25.80
2018-04-12T13:29:43.045Z,24.30
2018-04-12T13:32:09.316Z,24.50
2018-04-12T13:34:36.473Z,25.20
2018-04-12T13:37:02.777Z,25.67
2018-04-12T13:39:29.145Z,24.67
2018-04-12T13:41:55.473Z,25.73
2018-04-12T13:44:21.789Z,24.40
2018-04-12T13:46:48.856Z,23.70
2018-04-12T13:49:15.912Z,22.83
2018-04-12T13:51:43.271Z,24.90
2018-04-12T13:54:09.617Z,25.37
2018-04-12T13:56:35.966Z,24.97
2018-04-12T13:59:02.220Z,24.10
2018-04-12T14:01:28.641Z,26.13
2018-04-12T14:03:54.989Z,25.10
2018-04-12T14:06:21.371Z,23.70
2018-04-12T14:08:47.666Z,23.40
2018-04-12T14:11:13.975Z,25.17
2018-04-12T14:13:40.307Z,24.17
2018-04-12T14:16:06.934Z,25.30
2018-04-12T14:18:33.191Z,23.77
2018-04-12T14:20:59.683Z,25.17
2018-04-12T14:23:26.167Z,25.07
2018-04-12T14:25:52.523Z,23.87
2018-04-12T14:28:22.249Z,24.40
2018-04-12T14:30:48.530Z,25.17
2018-04-12T14:33:15.565Z,25.43
2018-04-12T14:35:41.867Z,24.57
2018-04-12T14:38:08.141Z,25.53
2018-04-12T14:40:34.441Z,26.00
2018-04-12T14:43:06.216Z,26.30
2018-04-12T14:45:32.531Z,25.40
2018-04-12T14:47:58.929Z,25.70
2018-04-12T14:50:26.517Z,26.03
2018-04-12T14:52:53.560Z,26.00
2018-04-12T14:55:19.809Z,25.60
2018-04-12T14:57:46.186Z,25.80
2018-04-12T15:00:15.922Z,27.67
2018-04-12T15:02:42.194Z,28.40
2018-04-12T15:05:09.220Z,26.90
2018-04-12T15:07:36.315Z,27.90
2018-04-12T15:10:02.612Z,27.00
2018-04-12T15:12:28.988Z,27.03
2018-04-12T15:14:55.317Z,26.40
2018-04-12T15:17:29.282Z,25.83
2018-04-12T15:19:55.668Z,27.23
2018-04-12T15:22:22.030Z,28.43
2018-04-12T15:24:48.359Z,28.20
2018-04-12T15:27:14.723Z,29.77
2018-04-12T15:29:41.097Z,28.80
2018-04-12T15:32:08.170Z,28.30
2018-04-12T15:34:35.190Z,30.33
2018-04-12T15:37:01.667Z,30.30
2018-04-12T15:39:28.098Z,29.20
2018-04-12T15:41:54.442Z,30.50
2018-04-12T15:44:20.897Z,29.37
2018-04-12T15:46:47.307Z,29.60
2018-04-12T15:49:13.621Z,30.10
2018-04-12T15:51:40.729Z,29.40
2018-04-12T15:54:07.778Z,28.33
2018-04-12T15:56:34.872Z,30.20
2018-04-12T15:59:01.293Z,29.00
2018-04-12T16:01:27.704Z,29.97
2018-04-12T16:03:54.002Z,30.30
2018-04-12T16:06:20.286Z,30.83
2018-04-12T16:08:46.642Z,33.03
2018-04-12T16:11:12.947Z,32.27
2018-04-12T16:13:39.949Z,30.50
2018-04-12T16:16:08.388Z,30.40
2018-04-12T16:18:34.785Z,30.73
2018-04-12T16:21:01.218Z,30.83
2018-04-12T16:23:27.631Z,30.33
2018-04-12T16:25:53.996Z,30.20
2018-04-12T16:28:20.361Z,29.27
2018-04-12T16:30:46.677Z,31.13
2018-04-12T16:33:15.902Z,32.30
2018-04-12T16:35:42.192Z,31.90
2018-04-12T16:38:09.224Z,31.40
2018-04-12T16:40:35.484Z,30.20
2018-04-12T16:43:01.845Z,31.77
2018-04-12T16:45:28.916Z,30.20
2018-04-12T16:47:55.201Z,30.17
2018-04-12T16:50:24.793Z,29.87
2018-04-12T16:52:51.092Z,29.63
2018-04-12T16:55:17.446Z,26.77
2018-04-12T16:57:43.781Z,27.83
2018-04-12T17:00:10.041Z,28.30
2018-04-12T17:02:36.261Z,27.13
2018-04-12T17:05:02.529Z,27.97
2018-04-12T17:07:29.642Z,29.10
2018-04-12T17:09:56.933Z,27.70
2018-04-12T17:12:25.345Z,28.90
2018-04-12T17:14:53.413Z,27.30
2018-04-12T17:17:19.704Z,28.53
2018-04-12T17:19:45.987Z,26.17
2018-04-12T17:22:12.257Z,26.67
2018-04-12T17:24:38.502Z,25.90
2018-04-12T17:27:04.773Z,25.83
2018-04-12T17:29:31.174Z,26.17
2018-04-12T17:31:58.369Z,25.77
2018-04-12T17:34:29.714Z,27.87
2018-04-12T17:36:56.163Z,24.50
2018-04-12T17:39:22.549Z,23.50
2018-04-12T17:41:49.283Z,23.83
2018-04-12T17:44:16.520Z,25.13
2018-04-12T17:46:44.427Z,24.40
2018-04-12T17:49:13.909Z,23.37
2018-04-12T17:51:40.960Z,23.90
2018-04-12T17:54:07.638Z,23.97
2018-04-12T17:56:35.106Z,24.27
2018-04-12T17:59:03.014Z,22.20
2018-04-12T18:01:29.512Z,21.63
2018-04-12T18:03:55.999Z,22.27
2018-04-12T18:06:22.636Z,23.00
2018-04-12T18:08:48.932Z,22.90
2018-04-12T18:11:15.281Z,22.57
2018-04-12T18:13:41.577Z,22.83
2018-04-12T18:16:08.892Z,21.50
2018-04-12T18:18:35.205Z,22.40
2018-04-12T18:21:02.321Z,20.83
2018-04-12T18:23:28.824Z,23.03
2018-04-12T18:25:55.140Z,21.30
2018-04-12T18:28:21.476Z,23.07
2018-04-12T18:30:47.839Z,23.10
2018-04-12T18:33:14.205Z,21.10
2018-04-12T18:35:41.481Z,20.90
2018-04-12T18:38:07.779Z,20.93
2018-04-12T18:40:34.843Z,21.23
2018-04-12T18:43:01.195Z,38.10
2018-04-12T18:45:27.705Z,30.07
2018-04-12T18:47:54.025Z,19.17
2018-04-12T18:50:21.283Z,17.03
2018-04-12T18:52:48.532Z,18.93
2018-04-12T18:55:17.338Z,18.30
2018-04-12T18:57:43.761Z,17.17
2018-04-12T19:00:11.054Z,15.47
2018-04-12T19:02:37.444Z,14.70
2018-04-12T19:05:04.470Z,16.63
2018-04-12T19:07:31.673Z,15.70
2018-04-12T19:09:58.110Z,14.97
2018-04-12T19:12:25.257Z,15.43
2018-04-12T19:14:52.468Z,16.70
2018-04-12T19:17:19.532Z,14.90
2018-04-12T19:19:47.232Z,13.00
2018-04-12T19:22:13.429Z,14.40
2018-04-12T19:24:39.717Z,12.90
2018-04-12T19:27:06.760Z,13.07
2018-04-12T19:29:32.861Z,11.73
2018-04-12T19:31:59.142Z,13.07
2018-04-12T19:34:25.372Z,12.10
2018-04-12T19:36:54.502Z,12.67
2018-04-12T19:39:21.342Z,12.00
2018-04-12T19:41:48.187Z,12.60
2018-04-12T19:44:15.645Z,13.20
2018-04-12T19:46:42.254Z,13.30
2018-04-12T19:49:08.429Z,10.93
2018-04-12T19:51:35.606Z,11.53
2018-04-12T19:54:02.893Z,11.03
2018-04-12T19:56:29.130Z,9.90
2018-04-12T19:58:56.038Z,10.93
2018-04-12T20:01:22.976Z,10.57
2018-04-12T20:03:50.585Z,10.90
2018-04-12T20:06:16.866Z,10.43
2018-04-12T20:08:44.046Z,9.67
2018-04-12T20:11:10.886Z,9.60
2018-04-12T20:13:36.977Z,10.33
2018-04-12T20:16:03.930Z,10.77
2018-04-12T20:18:30.190Z,10.93
2018-04-12T20:20:57.418Z,10.03
2018-04-12T20:23:23.545Z,9.70
2018-04-12T20:25:50.014Z,11.03
2018-04-12T20:28:16.147Z,10.10
2018-04-12T20:30:42.275Z,11.17
2018-04-12T20:33:08.455Z,10.30
2018-04-12T20:35:34.552Z,10.67
2018-04-12T20:38:00.720Z,12.40
2018-04-12T20:40:28.385Z,10.60
2018-04-12T20:42:55.263Z,11.50
2018-04-12T20:45:22.104Z,12.10
2018-04-12T20:47:48.394Z,11.70
2018-04-12T20:50:14.522Z,11.27
2018-04-12T20:52:40.793Z,11.03
2018-04-12T20:55:06.892Z,11.93
2018-04-12T20:57:33.050Z,10.83
2018-04-12T20:59:59.282Z,12.20
2018-04-12T21:02:26.402Z,12.50
2018-04-12T21:04:53.636Z,12.53
2018-04-12T21:07:22.981Z,13.57
2018-04-12T21:09:49.272Z,15.40
2018-04-12T21:12:17.464Z,15.10
2018-04-12T21:14:43.547Z,13.73
2018-04-12T21:17:09.936Z,13.70
2018-04-12T21:19:36.006Z,14.37
2018-04-12T21:22:02.071Z,13.30
2018-04-12T21:24:28.194Z,13.33
2018-04-12T21:26:54.313Z,13.00
2018-04-12T21:29:20.413Z,12.50
2018-04-12T21:31:46.537Z,12.30
2018-04-12T21:34:13.372Z,11.77
2018-04-12T21:36:39.478Z,11.23
2018-04-12T21:39:05.629Z,11.60
2018-04-12T21:41:31.752Z,12.70
2018-04-12T21:43:57.959Z,11.83
2018-04-12T21:46:24.845Z,11.33
2018-04-12T21:48:56.445Z,10.80
2018-04-12T21:51:22.549Z,11.67
2018-04-12T21:53:48.648Z,11.03
2018-04-12T21:56:15.550Z,10.90
2018-04-12T21:58:41.633Z,11.70
2018-04-12T22:01:07.737Z,11.20
2018-04-12T22:03:33.918Z,11.47
2018-04-12T22:06:00.091Z,11.73
2018-04-12T22:08:26.321Z,11.90
2018-04-12T22:10:52.461Z,12.70
2018-04-12T22:13:19.751Z,11.00
2018-04-12T22:15:45.899Z,12.10
2018-04-12T22:18:12.014Z,11.63
2018-04-12T22:20:38.117Z,11.37
2018-04-12T22:23:04.221Z,11.70
2018-04-12T22:25:30.482Z,10.07
2018-04-12T22:27:56.710Z,11.13
2018-04-12T22:30:23.553Z,10.13
2018-04-12T22:32:49.665Z,10.17
2018-04-12T22:35:15.772Z,11.30
2018-04-12T22:37:41.859Z,11.20
2018-04-12T22:40:07.961Z,10.47
2018-04-12T22:42:34.508Z,11.27
2018-04-12T22:45:00.936Z,9.33
2018-04-12T22:47:27.828Z,10.73
2018-04-12T22:49:53.988Z,10.27
2018-04-12T22:52:20.098Z,11.53
2018-04-12T22:54:46.240Z,11.40
2018-04-12T22:57:12.437Z,10.57
2018-04-12T22:59:39.260Z,11.87
2018-04-12T23:02:06.117Z,11.40
2018-04-12T23:04:32.232Z,11.07
2018-04-12T23:06:58.402Z,12.40
2018-04-12T23:09:24.549Z,11.00
2018-04-12T23:11:50.648Z,12.30
2018-04-12T23:14:16.885Z,12.07
2018-04-12T23:16:43.776Z,11.37
2018-04-12T23:19:10.613Z,12.43
2018-04-12T23:21:36.744Z,11.47
2018-04-12T23:24:02.849Z,11.50
2018-04-12T23:26:29.076Z,12.70
2018-04-12T23:28:55.181Z,11.60
2018-04-12T23:31:23.412Z,12.80
2018-04-12T23:33:49.678Z,13.20
2018-04-12T23:36:16.576Z,12.40
2018-04-12T23:38:43.432Z,13.40
2018-04-12T23:41:09.544Z,14.05
2018-04-12T23:43:35.733Z,12.43
2018-04-12T23:46:01.890Z,13.40
2018-04-12T23:48:28.173Z,13.13
2018-04-12T23:50:55.016Z,14.60
2018-04-12T23:53:21.120Z,14.85
2018-04-12T23:55:47.229Z,15.02
2018-04-12T23:58:13.327Z,15.18
